sensor_id;sensor_type;location;lat;lon;timestamp;pressure;altitude;pressure_sealevel;temperature;humidity
76590;BME280;65471;55.908;37.880;2023-02-01T00:00:51;98475.59;;;1.24;78.97
76590;BME280;65471;55.908;37.880;2023-02-01T00:03:18;98469.84;;;1.27;78.13
76590;BME280;65471;55.908;37.880;2023-02-01T00:05:57;98473.53;;;1.26;78.40
76590;BME280;65471;55.908;37.880;2023-02-01T00:08:24;98465.53;;;1.26;78.48
76590;BME280;65471;55.908;37.880;2023-02-01T00:11:02;98468.81;;;1.28;78.67
76590;BME280;65471;55.908;37.880;2023-02-01T00:13:30;98463.09;;;1.31;78.15
76590;BME280;65471;55.908;37.880;2023-02-01T00:16:12;98470.47;;;1.29;78.45
76590;BME280;65471;55.908;37.880;2023-02-01T00:18:40;98465.34;;;1.28;78.33
76590;BME280;65471;55.908;37.880;2023-02-01T00:21:09;98466.38;;;1.20;78.18
76590;BME280;65471;55.908;37.880;2023-02-01T00:23:36;98472.09;;;1.17;79.04
76590;BME280;65471;55.908;37.880;2023-02-01T00:26:06;98470.03;;;1.19;78.96
76590;BME280;65471;55.908;37.880;2023-02-01T00:28:35;98471.50;;;1.22;79.12
76590;BME280;65471;55.908;37.880;2023-02-01T00:31:03;98466.75;;;1.24;78.57
76590;BME280;65471;55.908;37.880;2023-02-01T00:33:31;98466.75;;;1.24;79.37
76590;BME280;65471;55.908;37.880;2023-02-01T00:36:00;98472.50;;;1.20;79.08
76590;BME280;65471;55.908;37.880;2023-02-01T00:38:27;98462.28;;;1.24;79.54
76590;BME280;65471;55.908;37.880;2023-02-01T00:41:01;98474.13;;;1.28;78.94
76590;BME280;65471;55.908;37.880;2023-02-01T00:43:28;98478.88;;;1.33;79.07
76590;BME280;65471;55.908;37.880;2023-02-01T00:45:54;98464.34;;;1.35;79.39
76590;BME280;65471;55.908;37.880;2023-02-01T00:48:21;98471.69;;;1.33;79.31
76590;BME280;65471;55.908;37.880;2023-02-01T00:50:48;98473.75;;;1.31;79.04
76590;BME280;65471;55.908;37.880;2023-02-01T00:53:15;98466.38;;;1.33;78.38
76590;BME280;65471;55.908;37.880;2023-02-01T00:55:50;98462.25;;;1.31;78.99
76590;BME280;65471;55.908;37.880;2023-02-01T00:58:17;98465.53;;;1.40;79.49
76590;BME280;65471;55.908;37.880;2023-02-01T01:00:44;98469.03;;;1.40;78.80
76590;BME280;65471;55.908;37.880;2023-02-01T01:03:10;98471.69;;;1.40;79.38
76590;BME280;65471;55.908;37.880;2023-02-01T01:05:50;98467.81;;;1.43;79.34
76590;BME280;65471;55.908;37.880;2023-02-01T01:08:17;98464.09;;;1.44;78.42
76590;BME280;65471;55.908;37.880;2023-02-01T01:10:43;98478.06;;;1.46;78.91
76590;BME280;65471;55.908;37.880;2023-02-01T01:13:10;98476.19;;;1.46;78.79
76590;BME280;65471;55.908;37.880;2023-02-01T01:15:38;98472.72;;;1.46;78.62
76590;BME280;65471;55.908;37.880;2023-02-01T01:18:06;98468.22;;;1.46;78.64
76590;BME280;65471;55.908;37.880;2023-02-01T01:20:38;98476.41;;;1.45;78.95
76590;BME280;65471;55.908;37.880;2023-02-01T01:23:06;98479.06;;;1.45;78.48
76590;BME280;65471;55.908;37.880;2023-02-01T01:25:40;98471.91;;;1.38;78.47
76590;BME280;65471;55.908;37.880;2023-02-01T01:28:07;98474.56;;;1.38;78.49
76590;BME280;65471;55.908;37.880;2023-02-01T01:30:34;98470.88;;;1.40;78.61
76590;BME280;65471;55.908;37.880;2023-02-01T01:33:01;98474.75;;;1.44;78.37
76590;BME280;65471;55.908;37.880;2023-02-01T01:35:30;98481.53;;;1.46;78.37
76590;BME280;65471;55.908;37.880;2023-02-01T01:37:59;98462.06;;;1.32;78.28
76590;BME280;65471;55.908;37.880;2023-02-01T01:40:27;98482.75;;;1.44;78.80
76590;BME280;65471;55.908;37.880;2023-02-01T01:42:55;98464.94;;;1.31;78.78
76590;BME280;65471;55.908;37.880;2023-02-01T01:45:29;98490.13;;;1.42;78.17
76590;BME280;65471;55.908;37.880;2023-02-01T01:48:15;98481.53;;;1.40;78.65
76590;BME280;65471;55.908;37.880;2023-02-01T01:50:58;98490.13;;;1.42;77.83
76590;BME280;65471;55.908;37.880;2023-02-01T01:53:34;98481.13;;;1.36;78.16
76590;BME280;65471;55.908;37.880;2023-02-01T01:56:02;98470.69;;;1.34;77.89
76590;BME280;65471;55.908;37.880;2023-02-01T01:58:30;98489.31;;;1.48;78.31
76590;BME280;65471;55.908;37.880;2023-02-01T08:38:39;98682.00;;;1.82;76.28
76590;BME280;65471;55.908;37.880;2023-02-01T08:41:12;98679.75;;;1.79;76.04
76590;BME280;65471;55.908;37.880;2023-02-01T08:43:41;98681.59;;;1.78;76.14
76590;BME280;65471;55.908;37.880;2023-02-01T08:46:08;98682.22;;;1.80;75.61
76590;BME280;65471;55.908;37.880;2023-02-01T08:48:36;98686.09;;;1.78;75.98
76590;BME280;65471;55.908;37.880;2023-02-01T08:51:04;98683.84;;;1.75;75.73
76590;BME280;65471;55.908;37.880;2023-02-01T08:53:32;98691.22;;;1.79;75.90
76590;BME280;65471;55.908;37.880;2023-02-01T08:55:59;98680.16;;;1.82;75.20
76590;BME280;65471;55.908;37.880;2023-02-01T08:58:27;98685.50;;;1.82;75.20
76590;BME280;65471;55.908;37.880;2023-02-01T09:00:54;98682.63;;;1.84;75.39
76590;BME280;65471;55.908;37.880;2023-02-01T09:03:21;98668.28;;;1.78;74.92
76590;BME280;65471;55.908;37.880;2023-02-01T09:05:48;98672.16;;;1.82;74.91
76590;BME280;65471;55.908;37.880;2023-02-01T09:08:15;98677.09;;;1.79;75.74
76590;BME280;65471;55.908;37.880;2023-02-01T09:10:42;98676.28;;;1.78;75.33
76590;BME280;65471;55.908;37.880;2023-02-01T09:13:09;98671.75;;;1.72;75.14
76590;BME280;65471;55.908;37.880;2023-02-01T09:15:37;98676.06;;;1.73;75.25
76590;BME280;65471;55.908;37.880;2023-02-01T09:18:04;98669.31;;;1.77;75.61
76590;BME280;65471;55.908;37.880;2023-02-01T09:20:30;98666.44;;;1.79;75.58
76590;BME280;65471;55.908;37.880;2023-02-01T09:22:59;98671.78;;;1.85;74.87
76590;BME280;65471;55.908;37.880;2023-02-01T09:25:26;98668.50;;;1.90;74.87
76590;BME280;65471;55.908;37.880;2023-02-01T09:27:53;98667.06;;;1.87;75.37
76590;BME280;65471;55.908;37.880;2023-02-01T09:30:20;98663.59;;;1.87;75.31
76590;BME280;65471;55.908;37.880;2023-02-01T09:32:47;98661.75;;;1.94;75.58
76590;BME280;65471;55.908;37.880;2023-02-01T09:35:14;98663.78;;;1.99;74.69
76590;BME280;65471;55.908;37.880;2023-02-01T09:37:41;98656.00;;;1.97;73.81
76590;BME280;65471;55.908;37.880;2023-02-01T09:40:14;98652.91;;;1.87;73.97
76590;BME280;65471;55.908;37.880;2023-02-01T09:45:30;98661.13;;;1.99;73.82
76590;BME280;65471;55.908;37.880;2023-02-01T09:48:03;98663.38;;;2.02;73.83
76590;BME280;65471;55.908;37.880;2023-02-01T09:50:38;98666.03;;;2.02;73.41
76590;BME280;65471;55.908;37.880;2023-02-01T09:53:16;98654.56;;;2.01;74.21
76590;BME280;65471;55.908;37.880;2023-02-01T09:55:53;98656.03;;;2.04;73.47
76590;BME280;65471;55.908;37.880;2023-02-01T09:58:39;98644.72;;;2.02;73.39
76590;BME280;65471;55.908;37.880;2023-02-01T10:01:18;98652.94;;;2.07;73.93
76590;BME280;65471;55.908;37.880;2023-02-01T10:03:46;98654.75;;;2.06;73.46
76590;BME280;65471;55.908;37.880;2023-02-01T10:18:05;98662.38;;;2.03;73.20
76590;BME280;65471;55.908;37.880;2023-02-01T10:21:06;98652.06;;;1.86;73.11
76590;BME280;65471;55.908;37.880;2023-02-01T10:26:40;98652.09;;;1.80;73.72
76590;BME280;65471;55.908;37.880;2023-02-01T10:29:16;98657.00;;;1.83;73.39
76590;BME280;65471;55.908;37.880;2023-02-01T10:31:45;98651.06;;;1.87;73.66
76590;BME280;65471;55.908;37.880;2023-02-01T10:34:21;98645.53;;;1.89;72.84
76590;BME280;65471;55.908;37.880;2023-02-01T10:39:53;98645.53;;;1.96;73.17
76590;BME280;65471;55.908;37.880;2023-02-01T10:42:28;98652.91;;;1.94;72.37
76590;BME280;65471;55.908;37.880;2023-02-01T10:44:59;98654.75;;;1.86;72.82
76590;BME280;65471;55.908;37.880;2023-02-01T10:47:28;98653.28;;;1.70;73.43
76590;BME280;65471;55.908;37.880;2023-02-01T10:50:42;98655.75;;;1.72;73.77
76590;BME280;65471;55.908;37.880;2023-02-01T10:52:57;98661.09;;;1.79;73.75
76590;BME280;65471;55.908;37.880;2023-02-01T10:58:06;98649.63;;;1.85;73.33
76590;BME280;65471;55.908;37.880;2023-02-01T11:01:01;98655.78;;;1.99;73.32
76590;BME280;65471;55.908;37.880;2023-02-01T11:06:00;98653.31;;;1.90;73.28
76590;BME280;65471;55.908;37.880;2023-02-01T11:08:28;98638.16;;;1.84;73.28
76590;BME280;65471;55.908;37.880;2023-02-01T11:11:00;98654.16;;;2.04;73.57
76590;BME280;65471;55.908;37.880;2023-02-01T11:13:32;98646.56;;;2.08;73.16
76590;BME280;65471;55.908;37.880;2023-02-01T11:16:06;98633.03;;;2.03;73.05
76590;BME280;65471;55.908;37.880;2023-02-01T11:18:37;98647.59;;;2.14;72.53
76590;BME280;65471;55.908;37.880;2023-02-01T11:21:06;98649.22;;;2.08;73.38
76590;BME280;65471;55.908;37.880;2023-02-01T11:23:41;98646.38;;;2.03;72.71
76590;BME280;65471;55.908;37.880;2023-02-01T11:26:11;98651.88;;;1.95;72.61
76590;BME280;65471;55.908;37.880;2023-02-01T11:28:40;98654.56;;;1.81;73.46
76590;BME280;65471;55.908;37.880;2023-02-01T11:31:11;98650.66;;;1.77;73.29
76590;BME280;65471;55.908;37.880;2023-02-01T11:33:50;98641.44;;;1.80;73.18
76590;BME280;65471;55.908;37.880;2023-02-01T11:36:29;98639.97;;;1.70;74.18
76590;BME280;65471;55.908;37.880;2023-02-01T11:39:18;98651.88;;;1.81;73.30
76590;BME280;65471;55.908;37.880;2023-02-01T11:42:12;98654.75;;;1.80;72.92
76590;BME280;65471;55.908;37.880;2023-02-01T11:44:40;98657.00;;;1.83;73.37
76590;BME280;65471;55.908;37.880;2023-02-01T11:47:29;98666.00;;;1.68;72.64
76590;BME280;65471;55.908;37.880;2023-02-01T11:50:00;98664.50;;;1.46;73.38
76590;BME280;65471;55.908;37.880;2023-02-01T11:52:48;98670.03;;;1.44;73.72
76590;BME280;65471;55.908;37.880;2023-02-01T12:11:48;98688.47;;;1.52;73.78
76590;BME280;65471;55.908;37.880;2023-02-01T12:16:57;98676.78;;;1.47;73.05
76590;BME280;65471;55.908;37.880;2023-02-01T12:26:30;98692.16;;;1.45;73.50
76590;BME280;65471;55.908;37.880;2023-02-01T12:43:14;98693.63;;;1.54;73.11
76590;BME280;65471;55.908;37.880;2023-02-01T12:46:19;98695.44;;;1.47;73.85
76590;BME280;65471;55.908;37.880;2023-02-01T12:49:10;98698.09;;;1.47;73.46
76590;BME280;65471;55.908;37.880;2023-02-01T12:51:41;98695.06;;;1.50;72.76
76590;BME280;65471;55.908;37.880;2023-02-01T12:54:34;98683.16;;;1.46;73.06
76590;BME280;65471;55.908;37.880;2023-02-01T12:57:04;98692.97;;;1.45;73.72
76590;BME280;65471;55.908;37.880;2023-02-01T12:59:42;98703.66;;;1.52;73.22
76590;BME280;65471;55.908;37.880;2023-02-01T13:05:17;98695.66;;;1.52;73.23
76590;BME280;65471;55.908;37.880;2023-02-01T13:08:08;98698.97;;;1.54;73.56
76590;BME280;65471;55.908;37.880;2023-02-01T13:10:43;98697.31;;;1.53;73.03
76590;BME280;65471;55.908;37.880;2023-02-01T13:18:47;98700.34;;;1.43;73.63
76590;BME280;65471;55.908;37.880;2023-02-01T13:21:21;98697.25;;;1.40;73.72
76590;BME280;65471;55.908;37.880;2023-02-01T13:23:50;98700.75;;;1.40;73.43
76590;BME280;65471;55.908;37.880;2023-02-01T13:26:19;98702.78;;;1.38;73.34
76590;BME280;65471;55.908;37.880;2023-02-01T13:28:49;98707.13;;;1.46;73.47
76590;BME280;65471;55.908;37.880;2023-02-01T13:45:22;98703.63;;;1.45;72.62
76590;BME280;65471;55.908;37.880;2023-02-01T13:47:57;98706.09;;;1.47;72.79
76590;BME280;65471;55.908;37.880;2023-02-01T13:50:32;98709.78;;;1.46;72.32
76590;BME280;65471;55.908;37.880;2023-02-01T13:53:15;98717.75;;;1.39;72.92
76590;BME280;65471;55.908;37.880;2023-02-01T13:58:38;98716.53;;;1.42;73.08
76590;BME280;65471;55.908;37.880;2023-02-01T14:01:32;98707.72;;;1.41;72.64
76590;BME280;65471;55.908;37.880;2023-02-01T14:04:03;98705.88;;;1.42;72.08
76590;BME280;65471;55.908;37.880;2023-02-01T14:09:15;98711.16;;;1.35;72.40
76590;BME280;65471;55.908;37.880;2023-02-01T14:19:26;98722.66;;;1.35;72.68
76590;BME280;65471;55.908;37.880;2023-02-01T14:21:54;98720.41;;;1.39;73.03
76590;BME280;65471;55.908;37.880;2023-02-01T14:24:32;98728.22;;;1.47;72.09
76590;BME280;65471;55.908;37.880;2023-02-01T14:27:29;98724.94;;;1.45;72.81
76590;BME280;65471;55.908;37.880;2023-02-01T14:30:05;98722.88;;;1.41;72.22
76590;BME280;65471;55.908;37.880;2023-02-01T14:32:36;98728.41;;;1.39;72.47
76590;BME280;65471;55.908;37.880;2023-02-01T14:35:24;98726.34;;;1.34;72.63
76590;BME280;65471;55.908;37.880;2023-02-01T14:38:00;98716.69;;;1.33;72.80
76590;BME280;65471;55.908;37.880;2023-02-01T14:40:31;98719.91;;;1.22;72.95
76590;BME280;65471;55.908;37.880;2023-02-01T14:42:58;98725.47;;;1.27;72.37
76590;BME280;65471;55.908;37.880;2023-02-01T14:50:37;98724.22;;;1.23;72.96
76590;BME280;65471;55.908;37.880;2023-02-01T14:56:05;98731.91;;;1.05;73.12
76590;BME280;65471;55.908;37.880;2023-02-01T14:58:49;98732.69;;;0.98;73.59
76590;BME280;65471;55.908;37.880;2023-02-01T15:01:28;98731.66;;;0.99;73.27
76590;BME280;65471;55.908;37.880;2023-02-01T15:04:10;98734.75;;;1.03;73.19
76590;BME280;65471;55.908;37.880;2023-02-01T15:06:57;98733.78;;;1.11;72.38
76590;BME280;65471;55.908;37.880;2023-02-01T15:12:17;98742.09;;;1.01;73.03
76590;BME280;65471;55.908;37.880;2023-02-01T15:15:03;98732.88;;;0.97;72.93
76590;BME280;65471;55.908;37.880;2023-02-01T15:17:31;98740.25;;;0.95;73.65
76590;BME280;65471;55.908;37.880;2023-02-01T15:20:21;98741.63;;;0.91;73.40
76590;BME280;65471;55.908;37.880;2023-02-01T15:22:57;98742.28;;;0.93;73.29
76590;BME280;65471;55.908;37.880;2023-02-01T15:25:33;98745.75;;;0.93;73.05
76590;BME280;65471;55.908;37.880;2023-02-01T15:28:02;98741.84;;;0.89;73.32
76590;BME280;65471;55.908;37.880;2023-02-01T15:30:32;98742.84;;;0.88;73.59
76590;BME280;65471;55.908;37.880;2023-02-01T15:33:13;98751.66;;;0.89;73.27
76590;BME280;65471;55.908;37.880;2023-02-01T15:44:04;98751.28;;;0.92;73.84
76590;BME280;65471;55.908;37.880;2023-02-01T15:46:33;98759.06;;;0.93;73.44
76590;BME280;65471;55.908;37.880;2023-02-01T15:49:03;98751.66;;;0.89;73.45
76590;BME280;65471;55.908;37.880;2023-02-01T15:51:31;98770.13;;;0.97;73.53
76590;BME280;65471;55.908;37.880;2023-02-01T15:54:05;98748.63;;;0.92;73.91
76590;BME280;65471;55.908;37.880;2023-02-01T15:56:36;98759.31;;;0.98;74.12
76590;BME280;65471;55.908;37.880;2023-02-01T15:59:06;98758.81;;;0.88;73.52
76590;BME280;65471;55.908;37.880;2023-02-01T16:01:39;98763.31;;;0.88;74.00
76590;BME280;65471;55.908;37.880;2023-02-01T16:04:22;98775.03;;;0.93;73.91
76590;BME280;65471;55.908;37.880;2023-02-01T16:06:52;98770.31;;;0.95;73.57
76590;BME280;65471;55.908;37.880;2023-02-01T16:09:22;98768.06;;;0.92;73.39
76590;BME280;65471;55.908;37.880;2023-02-01T16:12:00;98781.16;;;0.94;73.71
76590;BME280;65471;55.908;37.880;2023-02-01T16:14:27;98757.56;;;0.84;73.90
76590;BME280;65471;55.908;37.880;2023-02-01T16:16:56;98773.38;;;0.92;73.80
76590;BME280;65471;55.908;37.880;2023-02-01T16:19:24;98757.56;;;0.84;73.68
76590;BME280;65471;55.908;37.880;2023-02-01T16:21:56;98774.78;;;0.88;73.92
76590;BME280;65471;55.908;37.880;2023-02-01T16:24:26;98778.69;;;0.92;73.96
76590;BME280;65471;55.908;37.880;2023-02-01T16:26:54;98773.81;;;0.96;74.01
76590;BME280;65471;55.908;37.880;2023-02-01T16:29:21;98781.41;;;0.99;73.99
76590;BME280;65471;55.908;37.880;2023-02-01T16:31:48;98776.28;;;0.97;74.26
76590;BME280;65471;55.908;37.880;2023-02-01T16:34:16;98783.84;;;0.94;74.48
76590;BME280;65471;55.908;37.880;2023-02-01T16:36:47;98779.91;;;0.90;74.46
76590;BME280;65471;55.908;37.880;2023-02-01T16:39:25;98776.25;;;0.91;74.54
76590;BME280;65471;55.908;37.880;2023-02-01T16:41:54;98773.53;;;0.84;74.44
76590;BME280;65471;55.908;37.880;2023-02-01T16:44:20;98778.84;;;0.84;74.33
76590;BME280;65471;55.908;37.880;2023-02-01T16:46:48;98783.81;;;0.87;74.30
76590;BME280;65471;55.908;37.880;2023-02-01T16:51:46;98795.88;;;0.90;73.95
76590;BME280;65471;55.908;37.880;2023-02-01T16:54:14;98794.81;;;0.84;74.06
76590;BME280;65471;55.908;37.880;2023-02-01T16:56:41;98806.03;;;0.79;74.79
76590;BME280;65471;55.908;37.880;2023-02-01T16:59:08;98795.00;;;0.82;74.60
76590;BME280;65471;55.908;37.880;2023-02-01T17:01:36;98801.97;;;0.83;74.29
76590;BME280;65471;55.908;37.880;2023-02-01T17:04:11;98785.28;;;0.68;74.61
76590;BME280;65471;55.908;37.880;2023-02-01T17:06:38;98801.31;;;0.75;74.13
76590;BME280;65471;55.908;37.880;2023-02-01T17:09:06;98793.31;;;0.75;74.58
76590;BME280;65471;55.908;37.880;2023-02-01T17:11:32;98796.91;;;0.67;74.44
76590;BME280;65471;55.908;37.880;2023-02-01T17:14:17;98795.31;;;0.73;74.54
76590;BME280;65471;55.908;37.880;2023-02-01T17:16:47;98788.00;;;0.75;74.65
76590;BME280;65471;55.908;37.880;2023-02-01T17:19:16;98795.53;;;0.71;74.47
76590;BME280;65471;55.908;37.880;2023-02-01T17:21:47;98801.22;;;0.68;74.22
76590;BME280;65471;55.908;37.880;2023-02-01T17:24:17;98797.19;;;0.72;74.19
76590;BME280;65471;55.908;37.880;2023-02-01T17:26:45;98794.53;;;0.72;74.38
76590;BME280;65471;55.908;37.880;2023-02-01T17:29:15;98796.97;;;0.74;74.58
76590;BME280;65471;55.908;37.880;2023-02-01T17:31:48;98795.97;;;0.75;74.38
76590;BME280;65471;55.908;37.880;2023-02-01T17:34:16;98799.03;;;0.72;74.24
76590;BME280;65471;55.908;37.880;2023-02-01T17:36:45;98808.63;;;0.73;74.35
76590;BME280;65471;55.908;37.880;2023-02-01T17:39:14;98804.47;;;0.63;73.98
76590;BME280;65471;55.908;37.880;2023-02-01T17:42:02;98799.41;;;0.47;74.68
76590;BME280;65471;55.908;37.880;2023-02-01T17:44:30;98802.06;;;0.47;74.89
76590;BME280;65471;55.908;37.880;2023-02-01T17:46:59;98797.19;;;0.50;75.13
76590;BME280;65471;55.908;37.880;2023-02-01T17:49:26;98802.94;;;0.54;74.80
76590;BME280;65471;55.908;37.880;2023-02-01T17:51:56;98800.06;;;0.49;74.99
76590;BME280;65471;55.908;37.880;2023-02-01T17:54:24;98801.31;;;0.53;75.02
76590;BME280;65471;55.908;37.880;2023-02-01T17:56:52;98797.00;;;0.52;74.86
76590;BME280;65471;55.908;37.880;2023-02-01T17:59:19;98787.84;;;0.55;75.37
76590;BME280;65471;55.908;37.880;2023-02-01T18:01:45;98795.63;;;0.56;74.81
76590;BME280;65471;55.908;37.880;2023-02-01T18:04:15;98794.97;;;0.54;74.87
76590;BME280;65471;55.908;37.880;2023-02-01T18:06:44;98797.28;;;0.57;74.76
76590;BME280;65471;55.908;37.880;2023-02-01T18:09:13;98792.31;;;0.54;75.02
76590;BME280;65471;55.908;37.880;2023-02-01T18:11:39;98793.72;;;0.50;74.92
76590;BME280;65471;55.908;37.880;2023-02-01T18:14:11;98790.00;;;0.44;74.99
76590;BME280;65471;55.908;37.880;2023-02-01T18:16:38;98785.59;;;0.37;74.98
76590;BME280;65471;55.908;37.880;2023-02-01T18:19:05;98790.31;;;0.34;75.07
76590;BME280;65471;55.908;37.880;2023-02-01T18:21:40;98801.56;;;0.37;75.75
76590;BME280;65471;55.908;37.880;2023-02-01T18:24:12;98787.06;;;0.39;75.31
76590;BME280;65471;55.908;37.880;2023-02-01T18:26:41;98783.41;;;0.40;75.16
76590;BME280;65471;55.908;37.880;2023-02-01T18:29:08;98780.94;;;0.39;75.48
76590;BME280;65471;55.908;37.880;2023-02-01T18:31:40;98784.69;;;0.44;75.44
76590;BME280;65471;55.908;37.880;2023-02-01T18:34:09;98774.06;;;0.51;74.97
76590;BME280;65471;55.908;37.880;2023-02-01T18:36:42;98770.59;;;0.50;74.96
76590;BME280;65471;55.908;37.880;2023-02-01T18:39:09;98714.41;;;0.10;74.88
76590;BME280;65471;55.908;37.880;2023-02-01T18:41:37;98775.53;;;0.54;75.03
76590;BME280;65471;55.908;37.880;2023-02-01T18:44:03;98773.47;;;0.49;74.46
76590;BME280;65471;55.908;37.880;2023-02-01T18:46:30;98775.47;;;0.47;75.13
76590;BME280;65471;55.908;37.880;2023-02-01T18:48:57;98771.75;;;0.41;75.07
76590;BME280;65471;55.908;37.880;2023-02-01T18:51:24;98785.59;;;0.37;74.73
76590;BME280;65471;55.908;37.880;2023-02-01T18:53:50;98781.94;;;0.38;75.20
76590;BME280;65471;55.908;37.880;2023-02-01T18:56:17;98782.56;;;0.40;75.15
76590;BME280;65471;55.908;37.880;2023-02-01T18:58:44;98779.91;;;0.40;74.91
76590;BME280;65471;55.908;37.880;2023-02-01T19:01:17;98778.47;;;0.37;74.49
76590;BME280;65471;55.908;37.880;2023-02-01T19:03:46;98789.53;;;0.41;74.50
76590;BME280;65471;55.908;37.880;2023-02-01T19:06:24;98785.88;;;0.42;74.94
76590;BME280;65471;55.908;37.880;2023-02-01T19:08:51;98793.00;;;0.41;74.74
76590;BME280;65471;55.908;37.880;2023-02-01T19:11:21;98784.22;;;0.41;74.77
76590;BME280;65471;55.908;37.880;2023-02-01T19:13:49;98784.59;;;0.38;74.82
76590;BME280;65471;55.908;37.880;2023-02-01T19:16:16;98797.00;;;0.30;74.87
76590;BME280;65471;55.908;37.880;2023-02-01T19:18:43;98797.81;;;0.31;74.79
76590;BME280;65471;55.908;37.880;2023-02-01T19:21:11;98789.63;;;0.26;74.99
76590;BME280;65471;55.908;37.880;2023-02-01T19:23:40;98810.69;;;0.27;75.16
76590;BME280;65471;55.908;37.880;2023-02-01T19:26:12;98786.69;;;0.21;75.06
76590;BME280;65471;55.908;37.880;2023-02-01T19:28:39;98795.75;;;0.26;74.87
76590;BME280;65471;55.908;37.880;2023-02-01T19:31:07;98796.38;;;0.28;74.90
76590;BME280;65471;55.908;37.880;2023-02-01T19:33:35;98792.91;;;0.28;74.76
76590;BME280;65471;55.908;37.880;2023-02-01T19:36:04;98773.69;;;0.11;74.55
76590;BME280;65471;55.908;37.880;2023-02-01T19:38:31;98805.09;;;0.22;75.05
76590;BME280;65471;55.908;37.880;2023-02-01T19:41:01;98797.59;;;0.26;74.70
76590;BME280;65471;55.908;37.880;2023-02-01T19:43:28;98801.13;;;0.33;74.64
76590;BME280;65471;55.908;37.880;2023-02-01T19:45:54;98798.66;;;0.31;74.58
76590;BME280;65471;55.908;37.880;2023-02-01T19:48:23;98804.34;;;0.28;74.56
76590;BME280;65471;55.908;37.880;2023-02-01T19:50:50;98800.59;;;0.23;74.71
76590;BME280;65471;55.908;37.880;2023-02-01T19:53:17;98794.03;;;0.19;74.85
76590;BME280;65471;55.908;37.880;2023-02-01T19:55:45;98800.16;;;0.19;74.59
76590;BME280;65471;55.908;37.880;2023-02-01T19:58:12;98808.34;;;0.17;74.60
76590;BME280;65471;55.908;37.880;2023-02-01T20:00:40;98806.50;;;0.18;75.20
76590;BME280;65471;55.908;37.880;2023-02-01T20:03:15;98807.34;;;0.19;74.36
76590;BME280;65471;55.908;37.880;2023-02-01T20:05:42;98793.31;;;0.10;75.03
76590;BME280;65471;55.908;37.880;2023-02-01T20:08:09;98795.84;;;0.18;74.51
76590;BME280;65471;55.908;37.880;2023-02-01T20:10:41;98803.44;;;0.21;74.63
76590;BME280;65471;55.908;37.880;2023-02-01T20:13:10;98805.91;;;0.23;74.19
76590;BME280;65471;55.908;37.880;2023-02-01T20:15:37;98809.59;;;0.22;74.41
76590;BME280;65471;55.908;37.880;2023-02-01T20:18:03;98805.09;;;0.22;74.74
76590;BME280;65471;55.908;37.880;2023-02-01T20:20:31;98806.69;;;0.16;74.47
76590;BME280;65471;55.908;37.880;2023-02-01T20:22:57;98801.75;;;0.13;74.84
76590;BME280;65471;55.908;37.880;2023-02-01T20:25:24;98811.72;;;0.11;74.75
76590;BME280;65471;55.908;37.880;2023-02-01T20:27:51;98811.91;;;0.10;75.06
76590;BME280;65471;55.908;37.880;2023-02-01T20:30:18;98814.56;;;0.10;74.91
76590;BME280;65471;55.908;37.880;2023-02-01T20:32:50;98813.19;;;0.14;74.79
76590;BME280;65471;55.908;37.880;2023-02-01T20:35:21;98807.97;;;0.21;75.07
76590;BME280;65471;55.908;37.880;2023-02-01T20:37:48;98810.03;;;0.25;74.95
76590;BME280;65471;55.908;37.880;2023-02-01T20:40:17;98807.19;;;0.27;74.79
76590;BME280;65471;55.908;37.880;2023-02-01T20:42:44;98806.56;;;0.25;74.38
76590;BME280;65471;55.908;37.880;2023-02-01T20:45:10;98813.69;;;0.24;74.71
76590;BME280;65471;55.908;37.880;2023-02-01T20:47:37;98809.34;;;0.16;74.81
76590;BME280;65471;55.908;37.880;2023-02-01T20:50:06;98813.00;;;0.15;74.80
76590;BME280;65471;55.908;37.880;2023-02-01T20:52:35;98824.28;;;0.17;74.68
76590;BME280;65471;55.908;37.880;2023-02-01T20:55:02;98815.13;;;0.20;74.39
76590;BME280;65471;55.908;37.880;2023-02-01T20:57:29;98815.31;;;0.19;74.18
76590;BME280;65471;55.908;37.880;2023-02-01T20:59:56;98816.22;;;0.11;74.77
76590;BME280;65471;55.908;37.880;2023-02-01T21:02:23;98817.88;;;0.12;74.60
76590;BME280;65471;55.908;37.880;2023-02-01T21:04:50;98813.94;;;0.08;75.19
76590;BME280;65471;55.908;37.880;2023-02-01T21:07:17;98818.88;;;0.11;75.20
76590;BME280;65471;55.908;37.880;2023-02-01T21:09:45;98812.38;;;0.13;75.13
76590;BME280;65471;55.908;37.880;2023-02-01T21:12:11;98807.88;;;0.14;74.79
76590;BME280;65471;55.908;37.880;2023-02-01T21:14:39;98812.28;;;0.07;75.19
76590;BME280;65471;55.908;37.880;2023-02-01T21:17:06;98810.28;;;0.09;75.48
76590;BME280;65471;55.908;37.880;2023-02-01T21:19:34;98809.25;;;0.10;75.04
76590;BME280;65471;55.908;37.880;2023-02-01T21:22:10;98789.31;;;-0.01;75.24
76590;BME280;65471;55.908;37.880;2023-02-01T21:24:37;98802.75;;;0.12;75.72
76590;BME280;65471;55.908;37.880;2023-02-01T21:27:07;98805.59;;;0.11;75.23
76590;BME280;65471;55.908;37.880;2023-02-01T21:29:36;98806.97;;;0.07;75.50
76590;BME280;65471;55.908;37.880;2023-02-01T21:32:04;98807.81;;;0.07;75.61
76590;BME280;65471;55.908;37.880;2023-02-01T21:34:33;98810.72;;;0.12;75.60
76590;BME280;65471;55.908;37.880;2023-02-01T21:37:00;98814.47;;;0.18;75.00
76590;BME280;65471;55.908;37.880;2023-02-01T21:39:27;98790.59;;;0.03;75.02
76590;BME280;65471;55.908;37.880;2023-02-01T21:41:55;98808.44;;;0.09;75.47
76590;BME280;65471;55.908;37.880;2023-02-01T21:44:42;98810.28;;;0.09;75.50
76590;BME280;65471;55.908;37.880;2023-02-01T21:47:14;98788.47;;;-0.02;75.45
76590;BME280;65471;55.908;37.880;2023-02-01T21:49:47;98813.56;;;0.11;75.75
76590;BME280;65471;55.908;37.880;2023-02-01T21:52:18;98811.09;;;0.09;75.75
76590;BME280;65471;55.908;37.880;2023-02-01T21:54:46;98808.63;;;0.08;75.58
76590;BME280;65471;55.908;37.880;2023-02-01T21:57:12;98807.81;;;0.07;75.44
76590;BME280;65471;55.908;37.880;2023-02-01T21:59:41;98810.63;;;0.06;75.91
76590;BME280;65471;55.908;37.880;2023-02-01T22:02:10;98808.38;;;0.03;75.58